DAL864 MNMG-MPTO
Flight info
| Callsign | DAL864 |
|---|---|
| Flight time | 1h 12m |
| Altitude | 37000 |
| Route | CHILE1 CHILE DCT PADUR DCT BITOR VUMAN2 |
| Aircraft | A320/M-SDE3FGHIRWY/LB1 |
Departure
| Time | 2026-05-07 16:05 |
|---|---|
| Airport | Augusto C. Sandino (Managua) International Airport (MNMG) |
Arrival
| Time | 2026-05-07 17:17 |
|---|---|
| Airport | Tocumen International Airport (MPTO) |
| Time | Latitude | Longitude | Altitude | Speed | Heading |
|---|---|---|---|---|---|
| 2026-05-07 15:47 | 12.14393 | -86.17145 | 196 ft | 0 kts | 356° |
| 2026-05-07 15:59 | 12.14379 | -86.17146 | 205 ft | 4 kts | 1° |
| 2026-05-07 15:59 | 12.14353 | -86.17145 | 207 ft | 4 kts | 353° |
| 2026-05-07 15:59 | 12.14333 | -86.17142 | 205 ft | 1 kts | 349° |
| 2026-05-07 15:59 | 12.14330 | -86.17141 | 205 ft | 0 kts | 349° |
| 2026-05-07 16:02 | 12.14334 | -86.17148 | 206 ft | 2 kts | 289° |
| 2026-05-07 16:02 | 12.14335 | -86.17195 | 208 ft | 11 kts | 275° |
| 2026-05-07 16:02 | 12.14346 | -86.17299 | 201 ft | 19 kts | 276° |
| 2026-05-07 16:03 | 12.14362 | -86.17449 | 197 ft | 21 kts | 277° |
| 2026-05-07 16:03 | 12.14380 | -86.17593 | 206 ft | 20 kts | 277° |
| 2026-05-07 16:03 | 12.14392 | -86.17726 | 203 ft | 18 kts | 272° |
| 2026-05-07 16:03 | 12.14347 | -86.17834 | 208 ft | 16 kts | 240° |
| 2026-05-07 16:04 | 12.14275 | -86.17858 | 199 ft | 12 kts | 119° |
| 2026-05-07 16:04 | 12.14261 | -86.17756 | 204 ft | 25 kts | 94° |
| 2026-05-07 16:04 | 12.14212 | -86.17311 | 196 ft | 97 kts | 96° |
| 2026-05-07 16:04 | 12.14116 | -86.16421 | 213 ft | 151 kts | 95° |
| 2026-05-07 16:05 | 12.13960 | -86.15283 | 588 ft | 171 kts | 97° |
| 2026-05-07 16:05 | 12.13760 | -86.14015 | 1083 ft | 190 kts | 96° |
| 2026-05-07 16:05 | 12.13656 | -86.12685 | 1977 ft | 185 kts | 93° |
| 2026-05-07 16:05 | 12.13578 | -86.11382 | 2715 ft | 185 kts | 91° |
| 2026-05-07 16:06 | 12.13494 | -86.10055 | 3305 ft | 191 kts | 92° |
| 2026-05-07 16:06 | 12.13391 | -86.08623 | 3616 ft | 214 kts | 95° |
| 2026-05-07 16:06 | 12.12951 | -86.07138 | 4303 ft | 220 kts | 112° |
| 2026-05-07 16:06 | 12.12268 | -86.05734 | 5133 ft | 221 kts | 116° |
| 2026-05-07 16:07 | 12.11523 | -86.04356 | 5938 ft | 222 kts | 117° |
| 2026-05-07 16:07 | 12.10765 | -86.02970 | 6700 ft | 224 kts | 117° |
| 2026-05-07 16:07 | 12.10009 | -86.01570 | 7422 ft | 227 kts | 117° |
| 2026-05-07 16:07 | 12.09252 | -86.00147 | 8146 ft | 229 kts | 116° |
| 2026-05-07 16:08 | 12.08497 | -85.98703 | 8882 ft | 231 kts | 116° |
| 2026-05-07 16:08 | 12.07740 | -85.97240 | 9596 ft | 235 kts | 116° |
| 2026-05-07 16:08 | 12.06977 | -85.95756 | 10264 ft | 237 kts | 116° |
| 2026-05-07 16:08 | 12.06216 | -85.94271 | 10894 ft | 240 kts | 116° |
| 2026-05-07 16:09 | 12.05437 | -85.92752 | 11547 ft | 242 kts | 116° |
| 2026-05-07 16:09 | 12.04655 | -85.91219 | 12207 ft | 245 kts | 116° |
| 2026-05-07 16:09 | 12.03865 | -85.89667 | 12860 ft | 247 kts | 116° |
| 2026-05-07 16:09 | 12.03067 | -85.88102 | 13532 ft | 250 kts | 116° |
| 2026-05-07 16:10 | 12.02260 | -85.86521 | 14135 ft | 252 kts | 117° |
| 2026-05-07 16:10 | 12.01446 | -85.84930 | 14730 ft | 254 kts | 117° |
| 2026-05-07 16:10 | 12.00625 | -85.83327 | 15335 ft | 255 kts | 117° |
| 2026-05-07 16:10 | 11.99801 | -85.81716 | 15927 ft | 257 kts | 117° |
| 2026-05-07 16:11 | 11.98970 | -85.80093 | 16512 ft | 259 kts | 116° |
| 2026-05-07 16:11 | 11.98134 | -85.78456 | 17098 ft | 261 kts | 116° |
| 2026-05-07 16:11 | 11.97291 | -85.76808 | 17701 ft | 262 kts | 116° |
| 2026-05-07 16:11 | 11.96447 | -85.75153 | 18276 ft | 264 kts | 116° |
| 2026-05-07 16:12 | 11.95575 | -85.73441 | 18459 ft | 282 kts | 116° |
| 2026-05-07 16:12 | 11.94643 | -85.71606 | 18575 ft | 300 kts | 116° |
| 2026-05-07 16:12 | 11.93650 | -85.69657 | 18691 ft | 318 kts | 116° |
| 2026-05-07 16:12 | 11.92599 | -85.67598 | 18800 ft | 336 kts | 117° |
| 2026-05-07 16:13 | 11.91491 | -85.65434 | 18916 ft | 352 kts | 117° |
| 2026-05-07 16:13 | 11.90334 | -85.63175 | 19106 ft | 364 kts | 117° |
| 2026-05-07 16:13 | 11.89150 | -85.60865 | 19518 ft | 369 kts | 117° |
| 2026-05-07 16:13 | 11.87952 | -85.58533 | 19988 ft | 372 kts | 117° |
| 2026-05-07 16:14 | 11.86746 | -85.56185 | 20472 ft | 375 kts | 117° |
| 2026-05-07 16:14 | 11.85529 | -85.53817 | 20963 ft | 378 kts | 116° |
| 2026-05-07 16:14 | 11.84307 | -85.51435 | 21445 ft | 380 kts | 116° |
| 2026-05-07 16:14 | 11.83076 | -85.49034 | 21927 ft | 383 kts | 116° |
| 2026-05-07 16:15 | 11.81838 | -85.46616 | 22410 ft | 385 kts | 116° |
| 2026-05-07 16:15 | 11.80593 | -85.44183 | 22881 ft | 388 kts | 116° |
| 2026-05-07 16:15 | 11.79341 | -85.41734 | 23357 ft | 390 kts | 116° |
| 2026-05-07 16:15 | 11.78078 | -85.39271 | 23783 ft | 392 kts | 116° |
| 2026-05-07 16:16 | 11.76809 | -85.36800 | 24152 ft | 394 kts | 116° |
| 2026-05-07 16:16 | 11.75533 | -85.34313 | 24509 ft | 397 kts | 116° |
| 2026-05-07 16:16 | 11.74248 | -85.31809 | 24858 ft | 399 kts | 116° |
| 2026-05-07 16:16 | 11.72955 | -85.29292 | 25200 ft | 402 kts | 116° |
| 2026-05-07 16:17 | 11.71645 | -85.26763 | 25546 ft | 405 kts | 118° |
| 2026-05-07 16:17 | 11.70053 | -85.24377 | 25868 ft | 409 kts | 128° |
| 2026-05-07 16:17 | 11.68119 | -85.22230 | 26196 ft | 413 kts | 131° |
| 2026-05-07 16:17 | 11.66132 | -85.20101 | 26517 ft | 415 kts | 131° |
| 2026-05-07 16:18 | 11.64138 | -85.17958 | 26830 ft | 418 kts | 131° |
| 2026-05-07 16:18 | 11.62134 | -85.15800 | 27129 ft | 420 kts | 131° |
| 2026-05-07 16:18 | 11.60114 | -85.13623 | 27420 ft | 423 kts | 131° |
| 2026-05-07 16:18 | 11.58081 | -85.11435 | 27724 ft | 426 kts | 131° |
| 2026-05-07 16:19 | 11.56040 | -85.09241 | 28021 ft | 428 kts | 131° |
| 2026-05-07 16:19 | 11.53983 | -85.07028 | 28324 ft | 431 kts | 131° |
| 2026-05-07 16:19 | 11.51916 | -85.04809 | 28612 ft | 433 kts | 131° |
| 2026-05-07 16:19 | 11.49834 | -85.02576 | 28897 ft | 435 kts | 131° |
| 2026-05-07 16:20 | 11.47745 | -85.00333 | 29180 ft | 437 kts | 131° |
| 2026-05-07 16:20 | 11.45652 | -84.98082 | 29456 ft | 439 kts | 131° |
| 2026-05-07 16:20 | 11.43544 | -84.95812 | 29729 ft | 442 kts | 131° |
| 2026-05-07 16:20 | 11.41424 | -84.93533 | 29988 ft | 444 kts | 132° |
| 2026-05-07 16:21 | 11.39293 | -84.91246 | 30216 ft | 446 kts | 132° |
| 2026-05-07 16:21 | 11.37151 | -84.88949 | 30453 ft | 448 kts | 132° |
| 2026-05-07 16:21 | 11.34999 | -84.86641 | 30664 ft | 450 kts | 132° |
| 2026-05-07 16:21 | 11.32838 | -84.84324 | 30872 ft | 452 kts | 132° |
| 2026-05-07 16:22 | 11.30671 | -84.82001 | 31074 ft | 454 kts | 132° |
| 2026-05-07 16:22 | 11.28492 | -84.79666 | 31273 ft | 455 kts | 132° |
| 2026-05-07 16:22 | 11.26306 | -84.77326 | 31473 ft | 457 kts | 132° |
| 2026-05-07 16:22 | 11.24117 | -84.74982 | 31722 ft | 457 kts | 132° |
| 2026-05-07 16:23 | 11.21923 | -84.72631 | 31974 ft | 457 kts | 132° |
| 2026-05-07 16:23 | 11.19732 | -84.70280 | 32247 ft | 457 kts | 131° |
| 2026-05-07 16:23 | 11.17547 | -84.67934 | 32559 ft | 456 kts | 131° |
| 2026-05-07 16:23 | 11.15360 | -84.65589 | 32833 ft | 456 kts | 132° |
| 2026-05-07 16:24 | 11.13173 | -84.63248 | 33121 ft | 456 kts | 132° |
| 2026-05-07 16:24 | 11.10983 | -84.60906 | 33420 ft | 456 kts | 132° |
| 2026-05-07 16:24 | 11.08796 | -84.58564 | 33689 ft | 456 kts | 132° |
| 2026-05-07 16:24 | 11.06665 | -84.56177 | 33976 ft | 455 kts | 127° |
| 2026-05-07 16:25 | 11.04880 | -84.53514 | 34237 ft | 454 kts | 117° |
| 2026-05-07 16:25 | 11.03353 | -84.50713 | 34528 ft | 453 kts | 118° |
| 2026-05-07 16:25 | 11.01821 | -84.47904 | 34763 ft | 453 kts | 117° |
| 2026-05-07 16:25 | 11.00288 | -84.45104 | 34988 ft | 454 kts | 117° |
| 2026-05-07 16:26 | 10.98745 | -84.42299 | 35167 ft | 455 kts | 117° |
| 2026-05-07 16:26 | 10.97199 | -84.39489 | 35351 ft | 456 kts | 117° |
| 2026-05-07 16:26 | 10.95649 | -84.36668 | 35537 ft | 457 kts | 118° |
| 2026-05-07 16:26 | 10.94625 | -84.34796 | 35665 ft | 458 kts | 117° |
| 2026-05-07 16:27 | 10.92553 | -84.31007 | 35912 ft | 459 kts | 117° |
| 2026-05-07 16:27 | 10.91002 | -84.28164 | 36075 ft | 460 kts | 117° |
| 2026-05-07 16:27 | 10.89441 | -84.25316 | 36267 ft | 460 kts | 118° |
| 2026-05-07 16:27 | 10.87878 | -84.22471 | 36448 ft | 461 kts | 118° |
| 2026-05-07 16:28 | 10.86317 | -84.19628 | 36654 ft | 461 kts | 118° |
| 2026-05-07 16:28 | 10.84750 | -84.16779 | 36826 ft | 462 kts | 117° |
| 2026-05-07 16:28 | 10.83184 | -84.13926 | 36963 ft | 463 kts | 118° |
| 2026-05-07 16:29 | 10.80052 | -84.08214 | 36985 ft | 461 kts | 118° |
| 2026-05-07 16:29 | 10.76929 | -84.02516 | 36990 ft | 460 kts | 118° |
| 2026-05-07 16:30 | 10.73807 | -83.96837 | 36989 ft | 460 kts | 117° |
| 2026-05-07 16:30 | 10.70674 | -83.91140 | 36993 ft | 461 kts | 118° |
| 2026-05-07 16:31 | 10.68077 | -83.86412 | 37000 ft | 461 kts | 118° |
| 2026-05-07 16:31 | 10.64945 | -83.80729 | 37001 ft | 461 kts | 118° |
| 2026-05-07 16:32 | 10.61811 | -83.75044 | 37000 ft | 461 kts | 118° |
| 2026-05-07 16:32 | 10.58673 | -83.69359 | 37004 ft | 461 kts | 118° |
| 2026-05-07 16:33 | 10.55543 | -83.63674 | 37004 ft | 461 kts | 118° |
| 2026-05-07 16:33 | 10.52409 | -83.57988 | 37001 ft | 461 kts | 118° |
| 2026-05-07 16:34 | 10.49274 | -83.52303 | 37002 ft | 461 kts | 118° |
| 2026-05-07 16:34 | 10.46139 | -83.46617 | 37000 ft | 461 kts | 118° |
| 2026-05-07 16:35 | 10.43010 | -83.40936 | 36998 ft | 461 kts | 118° |
| 2026-05-07 16:35 | 10.39873 | -83.35258 | 36999 ft | 461 kts | 118° |
| 2026-05-07 16:36 | 10.36740 | -83.29586 | 37001 ft | 461 kts | 118° |
| 2026-05-07 16:36 | 10.33606 | -83.23913 | 37001 ft | 461 kts | 118° |
| 2026-05-07 16:37 | 10.30465 | -83.18241 | 37001 ft | 461 kts | 118° |
| 2026-05-07 16:37 | 10.27324 | -83.12567 | 37007 ft | 461 kts | 118° |
| 2026-05-07 16:38 | 10.24180 | -83.06898 | 37008 ft | 461 kts | 118° |
| 2026-05-07 16:38 | 10.21056 | -83.01267 | 37008 ft | 460 kts | 118° |
| 2026-05-07 16:39 | 10.17892 | -82.95566 | 37011 ft | 460 kts | 118° |
| 2026-05-07 16:39 | 10.14765 | -82.89943 | 37009 ft | 461 kts | 118° |
| 2026-05-07 16:40 | 10.11620 | -82.84274 | 37010 ft | 462 kts | 118° |
| 2026-05-07 16:40 | 10.08474 | -82.78595 | 37002 ft | 461 kts | 118° |
| 2026-05-07 16:41 | 10.05322 | -82.72931 | 36998 ft | 461 kts | 118° |
| 2026-05-07 16:41 | 10.02164 | -82.67263 | 36996 ft | 462 kts | 118° |
| 2026-05-07 16:42 | 9.99008 | -82.61589 | 36998 ft | 462 kts | 118° |
| 2026-05-07 16:42 | 9.96208 | -82.55738 | 36999 ft | 461 kts | 113° |
| 2026-05-07 16:43 | 9.93588 | -82.49798 | 37001 ft | 461 kts | 113° |
| 2026-05-07 16:43 | 9.90956 | -82.43850 | 37004 ft | 462 kts | 113° |
| 2026-05-07 16:44 | 9.88319 | -82.37912 | 37013 ft | 462 kts | 113° |
| 2026-05-07 16:44 | 9.85683 | -82.31968 | 37016 ft | 461 kts | 113° |
| 2026-05-07 16:45 | 9.83060 | -82.26040 | 37013 ft | 461 kts | 113° |
| 2026-05-07 16:45 | 9.80432 | -82.20119 | 37012 ft | 460 kts | 113° |
| 2026-05-07 16:46 | 9.77807 | -82.14206 | 37010 ft | 460 kts | 113° |
| 2026-05-07 16:46 | 9.75179 | -82.08297 | 37009 ft | 460 kts | 113° |
| 2026-05-07 16:47 | 9.72555 | -82.02388 | 37009 ft | 459 kts | 113° |
| 2026-05-07 16:47 | 9.69933 | -81.96486 | 37006 ft | 459 kts | 113° |
| 2026-05-07 16:48 | 9.67306 | -81.90593 | 37005 ft | 459 kts | 113° |
| 2026-05-07 16:48 | 9.64675 | -81.84697 | 37004 ft | 459 kts | 113° |
| 2026-05-07 16:49 | 9.62053 | -81.78805 | 36998 ft | 459 kts | 113° |
| 2026-05-07 16:49 | 9.59430 | -81.72913 | 36998 ft | 459 kts | 113° |
| 2026-05-07 16:50 | 9.56802 | -81.67023 | 36998 ft | 459 kts | 113° |
| 2026-05-07 16:50 | 9.54163 | -81.61135 | 36996 ft | 459 kts | 113° |
| 2026-05-07 16:51 | 9.51528 | -81.55249 | 36998 ft | 459 kts | 113° |
| 2026-05-07 16:51 | 9.48894 | -81.49365 | 36996 ft | 459 kts | 113° |
| 2026-05-07 16:52 | 9.46266 | -81.43474 | 36995 ft | 458 kts | 113° |
| 2026-05-07 16:52 | 9.43638 | -81.37594 | 36995 ft | 458 kts | 113° |
| 2026-05-07 16:53 | 9.41009 | -81.31725 | 36989 ft | 458 kts | 113° |
| 2026-05-07 16:53 | 9.38380 | -81.25853 | 36956 ft | 458 kts | 113° |
| 2026-05-07 16:53 | 9.37067 | -81.22918 | 36666 ft | 457 kts | 113° |
| 2026-05-07 16:54 | 9.35754 | -81.19974 | 35899 ft | 460 kts | 113° |
| 2026-05-07 16:54 | 9.34433 | -81.17017 | 35066 ft | 463 kts | 113° |
| 2026-05-07 16:54 | 9.33094 | -81.14033 | 34250 ft | 467 kts | 114° |
| 2026-05-07 16:54 | 9.31755 | -81.11057 | 33701 ft | 462 kts | 114° |
| 2026-05-07 16:55 | 9.30431 | -81.08110 | 33095 ft | 458 kts | 113° |
| 2026-05-07 16:55 | 9.29122 | -81.05190 | 32508 ft | 453 kts | 114° |
| 2026-05-07 16:55 | 9.27825 | -81.02297 | 31915 ft | 449 kts | 114° |
| 2026-05-07 16:55 | 9.26593 | -80.99410 | 31350 ft | 445 kts | 109° |
| 2026-05-07 16:56 | 9.25591 | -80.96461 | 30783 ft | 441 kts | 108° |
| 2026-05-07 16:56 | 9.24604 | -80.93537 | 30223 ft | 438 kts | 108° |
| 2026-05-07 16:56 | 9.22644 | -80.87756 | 29066 ft | 429 kts | 108° |
| 2026-05-07 16:57 | 9.21684 | -80.84918 | 28534 ft | 424 kts | 108° |
| 2026-05-07 16:57 | 9.20732 | -80.82113 | 28015 ft | 419 kts | 108° |
| 2026-05-07 16:57 | 9.19792 | -80.79348 | 27507 ft | 414 kts | 108° |
| 2026-05-07 16:57 | 9.18862 | -80.76609 | 27011 ft | 409 kts | 108° |
| 2026-05-07 16:58 | 9.17943 | -80.73907 | 26523 ft | 404 kts | 108° |
| 2026-05-07 16:58 | 9.17034 | -80.71232 | 26042 ft | 399 kts | 107° |
| 2026-05-07 16:58 | 9.16137 | -80.68586 | 25568 ft | 395 kts | 107° |
| 2026-05-07 16:58 | 9.15249 | -80.65968 | 25088 ft | 392 kts | 107° |
| 2026-05-07 16:59 | 9.14369 | -80.63372 | 24611 ft | 389 kts | 107° |
| 2026-05-07 16:59 | 9.13497 | -80.60795 | 24118 ft | 386 kts | 107° |
| 2026-05-07 16:59 | 9.12626 | -80.58231 | 23620 ft | 384 kts | 107° |
| 2026-05-07 16:59 | 9.11760 | -80.55686 | 23065 ft | 382 kts | 107° |
| 2026-05-07 17:00 | 9.10902 | -80.53156 | 22556 ft | 378 kts | 107° |
| 2026-05-07 17:00 | 9.10048 | -80.50651 | 22068 ft | 375 kts | 107° |
| 2026-05-07 17:00 | 9.09201 | -80.48167 | 21573 ft | 372 kts | 107° |
| 2026-05-07 17:00 | 9.08360 | -80.45700 | 21072 ft | 370 kts | 107° |
| 2026-05-07 17:01 | 9.07524 | -80.43246 | 20581 ft | 368 kts | 107° |
| 2026-05-07 17:01 | 9.06699 | -80.40814 | 20261 ft | 361 kts | 107° |
| 2026-05-07 17:01 | 9.06034 | -80.38454 | 20142 ft | 347 kts | 99° |
| 2026-05-07 17:01 | 9.05590 | -80.36066 | 19994 ft | 336 kts | 99° |
| 2026-05-07 17:02 | 9.05157 | -80.33768 | 19661 ft | 331 kts | 99° |
| 2026-05-07 17:02 | 9.04728 | -80.31501 | 19060 ft | 326 kts | 100° |
| 2026-05-07 17:02 | 9.04303 | -80.29260 | 18374 ft | 323 kts | 100° |
| 2026-05-07 17:02 | 9.03885 | -80.27040 | 17810 ft | 318 kts | 100° |
| 2026-05-07 17:03 | 9.03476 | -80.24854 | 17382 ft | 316 kts | 100° |
| 2026-05-07 17:03 | 9.03068 | -80.22680 | 16956 ft | 313 kts | 100° |
| 2026-05-07 17:03 | 9.02666 | -80.20541 | 16568 ft | 313 kts | 100° |
| 2026-05-07 17:03 | 9.02258 | -80.18353 | 16175 ft | 312 kts | 100° |
| 2026-05-07 17:04 | 9.01853 | -80.16198 | 15757 ft | 312 kts | 100° |
| 2026-05-07 17:04 | 9.01449 | -80.14055 | 15438 ft | 309 kts | 100° |
| 2026-05-07 17:04 | 9.01048 | -80.11915 | 15089 ft | 307 kts | 100° |
| 2026-05-07 17:04 | 9.00648 | -80.09802 | 14764 ft | 305 kts | 100° |
| 2026-05-07 17:05 | 9.00249 | -80.07700 | 14434 ft | 304 kts | 100° |
| 2026-05-07 17:05 | 8.99854 | -80.05606 | 14105 ft | 302 kts | 100° |
| 2026-05-07 17:05 | 8.99466 | -80.03525 | 13786 ft | 300 kts | 100° |
| 2026-05-07 17:05 | 8.99083 | -80.01454 | 13407 ft | 298 kts | 100° |
| 2026-05-07 17:06 | 8.98700 | -79.99395 | 13015 ft | 298 kts | 100° |
| 2026-05-07 17:06 | 8.98317 | -79.97344 | 12627 ft | 297 kts | 100° |
| 2026-05-07 17:06 | 8.97934 | -79.95308 | 12080 ft | 293 kts | 100° |
| 2026-05-07 17:06 | 8.97557 | -79.93321 | 11614 ft | 284 kts | 100° |
| 2026-05-07 17:07 | 8.97187 | -79.91374 | 11028 ft | 281 kts | 101° |
| 2026-05-07 17:07 | 8.96819 | -79.89439 | 10531 ft | 280 kts | 101° |
| 2026-05-07 17:07 | 8.96448 | -79.87495 | 10135 ft | 283 kts | 101° |
| 2026-05-07 17:07 | 8.96077 | -79.85538 | 9740 ft | 283 kts | 101° |
| 2026-05-07 17:08 | 8.95705 | -79.83585 | 9341 ft | 283 kts | 101° |
| 2026-05-07 17:08 | 8.95335 | -79.81634 | 8956 ft | 281 kts | 101° |
| 2026-05-07 17:08 | 8.94968 | -79.79694 | 8570 ft | 280 kts | 100° |
| 2026-05-07 17:08 | 8.94604 | -79.77764 | 8168 ft | 279 kts | 100° |
| 2026-05-07 17:09 | 8.94244 | -79.75842 | 7783 ft | 278 kts | 100° |
| 2026-05-07 17:09 | 8.93883 | -79.73928 | 7398 ft | 276 kts | 100° |
| 2026-05-07 17:09 | 8.93522 | -79.72021 | 7006 ft | 275 kts | 100° |
| 2026-05-07 17:09 | 8.93164 | -79.70135 | 6753 ft | 269 kts | 100° |
| 2026-05-07 17:10 | 8.92815 | -79.68294 | 6464 ft | 265 kts | 100° |
| 2026-05-07 17:10 | 8.92476 | -79.66499 | 6095 ft | 260 kts | 100° |
| 2026-05-07 17:10 | 8.92144 | -79.64739 | 5648 ft | 251 kts | 99° |
| 2026-05-07 17:10 | 8.91819 | -79.63026 | 5430 ft | 249 kts | 99° |
| 2026-05-07 17:11 | 8.91489 | -79.61297 | 5323 ft | 252 kts | 99° |
| 2026-05-07 17:11 | 8.91160 | -79.59562 | 5205 ft | 251 kts | 99° |
| 2026-05-07 17:11 | 8.90830 | -79.57816 | 4850 ft | 254 kts | 99° |
| 2026-05-07 17:11 | 8.90499 | -79.56065 | 4432 ft | 254 kts | 99° |
| 2026-05-07 17:12 | 8.90166 | -79.54313 | 4031 ft | 253 kts | 99° |
| 2026-05-07 17:12 | 8.89836 | -79.52575 | 3739 ft | 248 kts | 99° |
| 2026-05-07 17:12 | 8.89518 | -79.50898 | 3564 ft | 240 kts | 99° |
| 2026-05-07 17:12 | 8.89206 | -79.49273 | 3401 ft | 231 kts | 99° |
| 2026-05-07 17:13 | 8.89023 | -79.47699 | 3271 ft | 220 kts | 80° |
| 2026-05-07 17:13 | 8.89372 | -79.46746 | 3092 ft | 213 kts | 51° |
| 2026-05-07 17:13 | 8.90565 | -79.45970 | 2849 ft | 205 kts | 10° |
| 2026-05-07 17:13 | 8.91922 | -79.45812 | 2669 ft | 188 kts | 8° |
| 2026-05-07 17:14 | 8.93147 | -79.45490 | 2427 ft | 178 kts | 22° |
| 2026-05-07 17:14 | 8.94264 | -79.44980 | 2237 ft | 175 kts | 25° |
| 2026-05-07 17:14 | 8.95366 | -79.44435 | 2051 ft | 177 kts | 26° |
| 2026-05-07 17:14 | 8.96465 | -79.43879 | 1856 ft | 176 kts | 26° |
| 2026-05-07 17:15 | 8.97556 | -79.43321 | 1651 ft | 171 kts | 26° |
| 2026-05-07 17:15 | 8.98548 | -79.42790 | 1450 ft | 154 kts | 27° |
| 2026-05-07 17:15 | 8.99446 | -79.42284 | 1224 ft | 142 kts | 29° |
| 2026-05-07 17:15 | 9.00292 | -79.41805 | 1042 ft | 137 kts | 30° |
| 2026-05-07 17:16 | 9.01124 | -79.41332 | 891 ft | 137 kts | 28° |
| 2026-05-07 17:16 | 9.01963 | -79.40858 | 675 ft | 139 kts | 28° |
| 2026-05-07 17:16 | 9.02822 | -79.40390 | 463 ft | 142 kts | 30° |
| 2026-05-07 17:16 | 9.03672 | -79.39873 | 280 ft | 144 kts | 30° |
| 2026-05-07 17:17 | 9.04554 | -79.39380 | 115 ft | 145 kts | 30° |
| 2026-05-07 17:17 | 9.05408 | -79.38892 | 39 ft | 129 kts | 28° |
| 2026-05-07 17:17 | 9.06033 | -79.38537 | 44 ft | 78 kts | 28° |
| 2026-05-07 17:17 | 9.06337 | -79.38395 | 44 ft | 29 kts | 5° |
| 2026-05-07 17:18 | 9.06543 | -79.38391 | 44 ft | 30 kts | 360° |
| 2026-05-07 17:18 | 9.06647 | -79.38429 | 45 ft | 12 kts | 310° |
| 2026-05-07 17:18 | 9.06712 | -79.38438 | 46 ft | 9 kts | 22° |
| 2026-05-07 17:18 | 9.06763 | -79.38417 | 46 ft | 7 kts | 10° |
| 2026-05-07 17:19 | 9.06792 | -79.38441 | 46 ft | 5 kts | 276° |
| 2026-05-07 17:19 | 9.06791 | -79.38468 | 46 ft | 2 kts | 276° |
| 2026-05-07 17:19 | 9.06792 | -79.38475 | 46 ft | 0 kts | 277° |